Time;durP1;ratioP1;P1;durP2;ratioP2;P2;SDS_P1;SDS_P2;PMS_P1;PMS_P2;Temp;Humidity;BMP_temperature;BMP_pressure;BME280_temperature;BME280_humidity;BME280_pressure;Samples;Min_cycle;Max_cycle;Signal;HPM_P1;HPM_P2
2022/05/04 00:00:09;;;;;;;14.15;5.88;;;8.20;99.90;;;;;;5076063;28;20058;-48
2022/05/04 00:02:35;;;;;;;12.98;4.90;;;8.20;99.90;;;;;;5069555;28;20469;-48
2022/05/04 00:05:01;;;;;;;11.35;5.43;;;8.20;99.90;;;;;;5073920;28;20529;-45
2022/05/04 00:07:27;;;;;;;13.18;5.85;;;8.20;99.90;;;;;;5072142;28;20199;-47
2022/05/04 00:09:55;;;;;;;13.35;4.80;;;8.20;99.90;;;;;;5081501;28;20051;-50
2022/05/04 00:12:25;;;;;;;17.83;5.95;;;8.20;99.90;;;;;;5082426;28;20048;-49
2022/05/04 00:14:51;;;;;;;11.95;5.72;;;8.20;99.90;;;;;;5082465;28;20557;-50
2022/05/04 00:17:17;;;;;;;11.52;4.85;;;8.20;99.90;;;;;;5082576;28;20131;-47
2022/05/04 00:19:46;;;;;;;13.07;4.90;;;8.30;99.90;;;;;;5070386;28;20043;-51
2022/05/04 00:22:20;;;;;;;8.98;5.10;;;8.20;99.90;;;;;;5083309;28;20048;-48
2022/05/04 00:24:46;;;;;;;11.45;5.65;;;8.20;99.90;;;;;;5072076;28;20052;-50
2022/05/04 00:27:15;;;;;;;10.85;5.28;;;8.20;99.90;;;;;;5069674;28;20052;-46
2022/05/04 00:29:42;;;;;;;11.27;4.65;;;8.20;99.90;;;;;;5081536;28;20101;-49
2022/05/04 00:32:09;;;;;;;11.70;4.60;;;8.20;99.90;;;;;;5083163;28;20059;-46
2022/05/04 00:34:35;;;;;;;16.35;7.80;;;8.20;99.90;;;;;;5080623;28;20062;-47
2022/05/04 00:37:01;;;;;;;12.75;5.03;;;8.20;99.90;;;;;;5083277;28;20035;-48
2022/05/04 00:39:28;;;;;;;13.23;5.43;;;8.20;99.90;;;;;;5070538;28;20077;-48
2022/05/04 00:42:04;;;;;;;10.95;4.53;;;8.20;99.90;;;;;;5082956;28;20475;-48
2022/05/04 00:44:30;;;;;;;12.38;5.13;;;8.20;99.90;;;;;;5068447;28;20052;-47
2022/05/04 00:46:56;;;;;;;9.40;5.22;;;8.20;99.90;;;;;;5066988;28;20055;-47
2022/05/04 00:49:22;;;;;;;10.48;5.30;;;8.20;99.90;;;;;;5065644;28;20059;-48
2022/05/04 00:51:47;;;;;;;11.30;4.53;;;8.10;99.90;;;;;;5067266;28;20055;-48
2022/05/04 00:54:13;;;;;;;9.05;5.15;;;8.10;99.90;;;;;;5064480;28;20044;-51
2022/05/04 00:56:39;;;;;;;13.45;6.05;;;8.20;99.90;;;;;;5080238;28;20067;-48
2022/05/04 00:59:05;;;;;;;10.10;5.35;;;8.10;99.90;;;;;;5084432;28;20088;-48
2022/05/04 01:01:31;;;;;;;12.23;5.15;;;8.00;99.90;;;;;;5084647;28;20056;-47
2022/05/04 01:03:59;;;;;;;12.82;6.05;;;8.00;99.90;;;;;;5083719;28;20051;-51
2022/05/04 01:06:26;;;;;;;18.13;5.57;;;8.10;99.90;;;;;;5060267;28;20059;-48
2022/05/04 01:08:54;;;;;;;11.98;5.75;;;8.10;99.90;;;;;;5073246;28;20143;-50
2022/05/04 01:11:20;;;;;;;10.90;4.97;;;8.10;99.90;;;;;;5082973;28;20051;-41
2022/05/04 01:14:04;;;;;;;13.48;4.93;;;8.10;99.90;;;;;;5074660;28;20051;-48
2022/05/04 01:16:30;;;;;;;16.05;5.97;;;8.10;99.90;;;;;;5069069;28;20048;-49
2022/05/04 01:18:56;;;;;;;9.57;4.80;;;8.10;99.90;;;;;;5080006;28;20048;-48
2022/05/04 01:21:22;;;;;;;11.02;4.78;;;8.10;99.90;;;;;;5078879;28;20047;-47
2022/05/04 01:23:49;;;;;;;11.20;5.32;;;8.00;99.90;;;;;;5082175;28;20477;-45
2022/05/04 01:26:17;;;;;;;14.30;5.22;;;8.10;99.90;;;;;;5082563;28;20087;-46
2022/05/04 01:28:44;;;;;;;12.68;4.95;;;8.00;99.90;;;;;;5077940;28;20056;-48
2022/05/04 01:31:10;;;;;;;8.80;4.53;;;8.10;99.90;;;;;;5077002;28;20129;-47
2022/05/04 01:33:36;;;;;;;12.32;4.68;;;8.00;99.90;;;;;;5063278;28;20048;-48
2022/05/04 01:36:02;;;;;;;12.93;4.82;;;8.00;99.90;;;;;;5075501;28;20054;-49
2022/05/04 01:38:28;;;;;;;14.43;3.45;;;8.00;99.90;;;;;;5071639;28;20312;-45
2022/05/04 01:40:54;;;;;;;12.70;3.67;;;8.00;99.90;;;;;;5079159;28;20497;-48
2022/05/04 01:43:19;;;;;;;13.13;4.03;;;8.00;99.90;;;;;;5069478;28;20048;-48
2022/05/04 01:45:45;;;;;;;10.30;3.13;;;8.00;99.90;;;;;;5076300;28;20138;-51
2022/05/04 01:48:11;;;;;;;11.73;2.97;;;8.00;99.90;;;;;;5066575;28;20051;-48
2022/05/04 01:50:37;;;;;;;10.30;2.90;;;8.00;99.90;;;;;;5070911;28;20059;-47
2022/05/04 01:53:03;;;;;;;8.63;3.65;;;8.10;99.90;;;;;;5081999;28;20052;-47
2022/05/04 01:55:33;;;;;;;12.80;3.67;;;8.00;99.90;;;;;;5080747;28;20052;-46
2022/05/04 01:57:59;;;;;;;10.93;3.65;;;8.00;99.90;;;;;;5079699;28;20058;-45
2022/05/04 02:00:25;;;;;;;13.00;4.38;;;8.00;99.90;;;;;;5078313;28;20052;-48
2022/05/04 02:02:52;;;;;;;7.97;3.13;;;8.00;99.90;;;;;;5080294;28;20398;-46
2022/05/04 02:05:18;;;;;;;10.80;3.80;;;8.10;99.90;;;;;;5081236;28;20271;-46
2022/05/04 02:07:44;;;;;;;8.50;3.85;;;8.00;99.90;;;;;;5081459;28;20043;-49
2022/05/04 02:10:11;;;;;;;12.23;4.28;;;8.00;99.90;;;;;;5073286;28;20044;-48
2022/05/04 02:12:37;;;;;;;16.25;5.05;;;8.10;99.90;;;;;;5082004;28;20126;-49
2022/05/04 02:15:04;;;;;;;11.68;4.57;;;8.00;99.90;;;;;;5085992;28;20056;-49
2022/05/04 02:17:33;;;;;;;15.00;4.72;;;8.00;99.90;;;;;;5070248;28;20048;-53
2022/05/04 02:19:58;;;;;;;12.20;3.95;;;8.00;99.90;;;;;;5073228;28;20057;-49
2022/05/04 02:22:27;;;;;;;10.00;4.13;;;8.00;99.90;;;;;;5079457;28;20051;-48
2022/05/04 02:24:53;;;;;;;12.48;4.65;;;8.00;99.90;;;;;;5082324;28;20075;-46
2022/05/04 02:27:19;;;;;;;12.32;4.10;;;7.90;99.90;;;;;;5080344;28;20135;-48
2022/05/04 02:29:45;;;;;;;12.32;4.13;;;7.90;99.90;;;;;;5079992;28;20133;-47
2022/05/04 02:32:11;;;;;;;11.27;4.32;;;7.90;99.90;;;;;;5079216;28;20040;-50
2022/05/04 02:37:54;;;;;;;9.10;4.00;;;7.90;99.90;;;;;;5073028;28;20118;-47
2022/05/04 02:40:11;;;;;;;13.35;4.35;;;7.90;99.90;;;;;;5061537;28;20049;-46
2022/05/04 02:42:37;;;;;;;15.13;3.83;;;7.90;99.90;;;;;;5068578;28;20052;-48
2022/05/04 02:45:05;;;;;;;10.13;4.35;;;7.90;99.90;;;;;;5073207;28;20084;-48
2022/05/04 02:47:31;;;;;;;12.60;3.70;;;7.90;99.90;;;;;;5077750;28;20086;-48
2022/05/04 02:49:57;;;;;;;11.02;3.70;;;7.90;99.90;;;;;;5078762;28;20048;-47
2022/05/04 02:52:24;;;;;;;10.10;3.53;;;7.90;99.90;;;;;;5076806;28;20040;-48
2022/05/04 02:54:49;;;;;;;10.90;3.75;;;7.80;99.90;;;;;;5077650;28;20062;-48
2022/05/04 02:57:15;;;;;;;13.32;3.47;;;7.80;99.90;;;;;;5080535;28;20040;-46
2022/05/04 02:59:41;;;;;;;11.18;3.85;;;7.80;99.90;;;;;;5078066;28;20620;-49
2022/05/04 03:04:51;;;;;;;12.63;3.83;;;7.70;99.90;;;;;;5077055;28;20148;-45
2022/05/04 03:07:17;;;;;;;8.73;3.65;;;7.70;99.90;;;;;;5073708;28;20611;-49
2022/05/04 03:09:44;;;;;;;15.13;3.58;;;7.70;99.90;;;;;;5073052;28;20071;-48
2022/05/04 03:12:10;;;;;;;10.30;3.40;;;7.60;99.90;;;;;;5079135;28;20574;-48
2022/05/04 03:14:39;;;;;;;14.65;3.70;;;7.70;99.90;;;;;;5074943;28;20063;-47
2022/05/04 03:17:05;;;;;;;16.70;4.75;;;7.70;99.90;;;;;;5078674;28;20169;-48
2022/05/04 03:19:30;;;;;;;8.48;3.55;;;7.70;99.90;;;;;;5077347;28;20052;-48
2022/05/04 03:21:56;;;;;;;17.90;5.72;;;7.80;99.90;;;;;;5076837;28;20473;-47
2022/05/04 03:24:22;;;;;;;17.23;4.75;;;7.80;99.90;;;;;;5077077;28;20079;-46
2022/05/04 03:26:48;;;;;;;11.30;4.00;;;7.80;99.90;;;;;;5080428;28;20478;-48
2022/05/04 03:29:14;;;;;;;13.63;4.30;;;7.80;99.90;;;;;;5082029;28;20129;-49
2022/05/04 03:31:40;;;;;;;13.32;3.72;;;7.80;99.90;;;;;;5083164;28;20036;-46
2022/05/04 03:34:06;;;;;;;10.98;4.00;;;7.80;99.90;;;;;;5070851;28;20040;-49
2022/05/04 03:36:32;;;;;;;12.40;3.92;;;7.70;99.90;;;;;;5070087;28;20044;-46
2022/05/04 03:39:00;;;;;;;12.45;3.47;;;7.80;99.90;;;;;;5069680;28;20055;-48
2022/05/04 03:41:25;;;;;;;10.32;3.83;;;7.80;99.90;;;;;;5068762;28;20551;-44
2022/05/04 03:43:51;;;;;;;10.50;3.25;;;7.70;99.90;;;;;;5076079;28;20048;-49
2022/05/04 03:46:19;;;;;;;13.55;3.50;;;7.70;99.90;;;;;;5071207;28;20044;-48
2022/05/04 03:48:47;;;;;;;10.98;3.67;;;7.70;99.90;;;;;;5073538;28;20048;-51
2022/05/04 03:51:14;;;;;;;11.60;3.67;;;7.70;99.90;;;;;;5077480;28;20056;-49
2022/05/04 03:53:42;;;;;;;10.32;3.67;;;7.70;99.90;;;;;;5066181;28;20048;-49
2022/05/04 03:56:08;;;;;;;10.27;3.47;;;7.70;99.90;;;;;;5077680;28;20143;-48
2022/05/04 03:58:34;;;;;;;9.63;3.65;;;7.70;99.90;;;;;;5078219;28;20059;-48
2022/05/04 04:01:00;;;;;;;12.57;3.50;;;7.70;99.90;;;;;;5078203;28;20509;-46
2022/05/04 04:03:26;;;;;;;9.02;4.03;;;7.70;99.90;;;;;;5079598;28;20059;-48
2022/05/04 04:05:52;;;;;;;11.38;4.30;;;7.70;99.90;;;;;;5072927;28;20049;-46
2022/05/04 04:08:18;;;;;;;8.82;3.28;;;7.80;99.90;;;;;;5078278;28;20051;-49
2022/05/04 04:10:44;;;;;;;9.38;2.70;;;7.80;99.90;;;;;;5069344;28;20048;-46
2022/05/04 04:13:09;;;;;;;9.32;3.20;;;7.70;99.90;;;;;;5079080;28;20052;-48
2022/05/04 04:15:35;;;;;;;12.23;2.80;;;7.80;99.90;;;;;;5078835;28;20048;-47
2022/05/04 04:18:01;;;;;;;13.18;3.13;;;7.80;99.90;;;;;;5076717;28;20090;-48
2022/05/04 04:23:11;;;;;;;10.30;3.65;;;7.80;99.90;;;;;;5076378;28;20392;-47
2022/05/04 04:25:38;;;;;;;11.40;3.45;;;7.80;99.90;;;;;;5078358;28;20047;-46
2022/05/04 04:28:04;;;;;;;9.52;2.90;;;7.80;99.90;;;;;;5077258;28;20056;-48
2022/05/04 04:30:29;;;;;;;10.98;3.80;;;7.80;99.90;;;;;;5078635;28;20117;-47
2022/05/04 04:32:55;;;;;;;10.57;3.42;;;7.90;99.90;;;;;;5074293;28;20451;-46
2022/05/04 04:35:21;;;;;;;10.45;3.10;;;7.90;99.90;;;;;;5076078;28;20876;-47
2022/05/04 04:37:46;;;;;;;13.75;3.00;;;7.90;99.90;;;;;;5069165;28;20128;-45
2022/05/04 04:40:12;;;;;;;7.72;2.90;;;7.90;99.90;;;;;;5080134;28;20092;-48
2022/05/04 04:42:38;;;;;;;11.85;3.53;;;7.90;99.90;;;;;;5079071;28;20427;-47
2022/05/04 04:45:05;;;;;;;9.88;2.95;;;8.00;99.90;;;;;;5076229;28;20044;-50
2022/05/04 04:47:31;;;;;;;13.45;2.90;;;8.00;99.90;;;;;;5071854;28;20061;-53
2022/05/04 04:49:58;;;;;;;15.00;3.85;;;8.00;99.90;;;;;;5075195;28;20047;-50
2022/05/04 04:52:24;;;;;;;9.43;3.40;;;8.00;99.90;;;;;;5074796;28;20099;-47
2022/05/04 04:54:50;;;;;;;9.98;3.03;;;8.10;99.90;;;;;;5072400;28;20054;-51
2022/05/04 04:57:16;;;;;;;10.52;3.97;;;8.10;99.90;;;;;;5082814;28;20060;-49
2022/05/04 04:59:43;;;;;;;11.45;3.95;;;8.00;99.90;;;;;;5076938;28;20059;-47
2022/05/04 05:02:10;;;;;;;10.88;3.60;;;8.00;99.90;;;;;;5082426;28;20052;-47
2022/05/04 05:04:36;;;;;;;7.63;3.53;;;8.00;99.90;;;;;;5082133;28;20043;-45
2022/05/04 05:07:02;;;;;;;12.45;3.40;;;8.00;99.90;;;;;;5073825;28;20062;-47
2022/05/04 05:09:28;;;;;;;10.45;3.97;;;8.00;99.90;;;;;;5076452;28;20151;-50
2022/05/04 05:11:53;;;;;;;13.45;4.10;;;8.10;99.90;;;;;;5079543;28;20059;-44
2022/05/04 05:17:06;;;;;;;9.77;3.20;;;8.10;99.90;;;;;;5081709;28;20056;-46
2022/05/04 05:19:32;;;;;;;10.63;3.72;;;8.10;99.90;;;;;;5080232;28;20066;-50
2022/05/04 05:21:58;;;;;;;12.75;3.58;;;8.10;99.90;;;;;;5077662;28;20619;-46
2022/05/04 05:24:24;;;;;;;10.98;3.40;;;8.20;99.90;;;;;;5075757;28;20066;-45
2022/05/04 05:26:50;;;;;;;11.85;3.65;;;8.30;99.90;;;;;;5074708;28;20552;-47
2022/05/04 05:29:16;;;;;;;9.63;3.75;;;8.30;99.90;;;;;;5074846;28;20067;-50
2022/05/04 05:31:41;;;;;;;11.57;3.35;;;8.40;99.90;;;;;;5069484;28;20381;-48
2022/05/04 05:34:07;;;;;;;12.55;3.97;;;8.40;99.90;;;;;;5079387;28;20040;-47
2022/05/04 05:36:33;;;;;;;9.93;3.22;;;8.50;99.90;;;;;;5080276;28;20056;-49
2022/05/04 05:38:58;;;;;;;12.77;3.92;;;8.50;99.90;;;;;;5073936;28;20389;-47
2022/05/04 05:41:25;;;;;;;7.82;2.50;;;8.60;99.90;;;;;;5082100;28;20120;-46
2022/05/04 05:43:51;;;;;;;9.10;3.15;;;8.60;99.90;;;;;;5079469;28;20527;-47
2022/05/04 05:46:17;;;;;;;8.40;2.63;;;8.60;99.90;;;;;;5075073;28;20102;-48
2022/05/04 05:48:43;;;;;;;14.80;2.78;;;8.70;99.90;;;;;;5077886;28;20056;-49
2022/05/04 05:51:09;;;;;;;7.55;2.63;;;8.70;99.90;;;;;;5073062;28;20048;-47
2022/05/04 05:53:35;;;;;;;8.90;2.78;;;8.80;99.90;;;;;;5076324;28;20051;-48
2022/05/04 05:56:00;;;;;;;6.72;2.72;;;8.80;99.90;;;;;;5074870;28;20098;-48
2022/05/04 05:58:26;;;;;;;9.95;3.05;;;8.80;99.90;;;;;;5076469;28;20048;-46
2022/05/04 06:00:52;;;;;;;11.35;3.50;;;8.90;99.90;;;;;;5083194;28;20059;-50
2022/05/04 06:03:18;;;;;;;8.63;3.08;;;9.00;99.90;;;;;;5081848;28;20105;-48
2022/05/04 06:05:44;;;;;;;9.90;3.03;;;9.00;99.90;;;;;;5073706;28;20052;-47
2022/05/04 06:08:10;;;;;;;7.25;3.00;;;9.00;99.90;;;;;;5079220;28;20048;-48
2022/05/04 06:10:37;;;;;;;12.07;3.00;;;9.10;99.90;;;;;;5081742;28;20048;-47
2022/05/04 06:13:03;;;;;;;10.30;3.47;;;9.10;99.90;;;;;;5072752;28;20069;-48
2022/05/04 06:15:29;;;;;;;10.10;2.88;;;9.20;99.90;;;;;;5074876;28;20099;-49
2022/05/04 06:17:55;;;;;;;9.02;2.90;;;9.30;99.90;;;;;;5079593;28;20051;-47
2022/05/04 06:20:22;;;;;;;13.02;4.50;;;9.30;99.90;;;;;;5079952;28;20052;-49
2022/05/04 06:22:48;;;;;;;7.45;2.75;;;9.40;99.90;;;;;;5080912;28;20147;-49
2022/05/04 06:25:14;;;;;;;11.07;3.30;;;9.30;99.90;;;;;;5062941;28;20060;-48
2022/05/04 06:27:41;;;;;;;8.40;2.80;;;9.40;99.90;;;;;;5059493;28;20052;-47
2022/05/04 06:35:37;;;;;;;9.70;2.97;;;9.60;99.90;;;;;;5060577;28;20052;-46
2022/05/04 06:38:03;;;;;;;10.32;3.42;;;9.60;99.90;;;;;;5029667;28;20049;-48
2022/05/04 06:40:28;;;;;;;9.18;2.92;;;9.80;99.90;;;;;;5050648;28;20505;-50
2022/05/04 06:42:55;;;;;;;15.45;3.22;;;9.90;99.90;;;;;;5052287;28;20131;-48
2022/05/04 06:45:20;;;;;;;12.10;2.90;;;10.00;99.90;;;;;;5054715;28;20044;-48
2022/05/04 06:47:47;;;;;;;15.75;2.90;;;10.00;99.90;;;;;;5048658;28;20383;-50
2022/05/04 06:50:13;;;;;;;8.68;3.00;;;10.10;99.90;;;;;;5051282;28;20044;-47
2022/05/04 06:52:39;;;;;;;8.48;2.35;;;10.10;99.90;;;;;;5051895;28;20491;-48
2022/05/04 06:55:06;;;;;;;12.63;3.45;;;10.30;99.90;;;;;;5055947;28;20514;-46
2022/05/04 06:57:32;;;;;;;9.00;2.63;;;10.40;99.90;;;;;;5051195;28;20041;-42
2022/05/04 06:59:59;;;;;;;17.52;2.83;;;10.40;99.90;;;;;;5055914;28;20499;-54
2022/05/04 07:02:26;;;;;;;10.27;2.83;;;10.50;99.90;;;;;;5034829;28;20055;-46
2022/05/04 07:04:52;;;;;;;9.30;2.63;;;10.50;99.90;;;;;;5057671;28;20055;-51
2022/05/04 07:07:17;;;;;;;6.90;2.58;;;10.50;99.90;;;;;;5053314;28;20045;-48
2022/05/04 07:09:43;;;;;;;13.60;3.55;;;10.60;99.90;;;;;;5053561;28;20318;-50
2022/05/04 07:12:09;;;;;;;8.60;2.80;;;10.40;99.90;;;;;;5041071;28;20086;-52
2022/05/04 07:14:35;;;;;;;7.53;2.70;;;10.40;99.90;;;;;;5063259;28;20131;-49
2022/05/04 07:17:01;;;;;;;8.88;3.03;;;10.40;99.90;;;;;;5063289;28;20460;-50
2022/05/04 07:19:27;;;;;;;8.93;2.83;;;10.50;99.90;;;;;;5058599;28;20629;-56
2022/05/04 07:21:53;;;;;;;9.65;2.55;;;10.40;99.90;;;;;;5060072;28;20128;-51
2022/05/04 07:24:19;;;;;;;10.90;2.97;;;10.50;99.90;;;;;;5038364;28;20053;-51
2022/05/04 07:26:44;;;;;;;8.45;2.85;;;10.50;99.90;;;;;;5037526;28;20510;-46
2022/05/04 07:29:10;;;;;;;10.93;2.72;;;10.70;99.90;;;;;;5038747;28;20040;-50
2022/05/04 07:31:37;;;;;;;9.55;3.67;;;10.90;99.90;;;;;;5037576;28;20144;-52
2022/05/04 07:34:03;;;;;;;7.15;2.83;;;11.00;99.90;;;;;;5032115;28;20048;-51
2022/05/04 07:36:29;;;;;;;9.75;2.92;;;11.10;99.90;;;;;;5034998;28;20330;-48
2022/05/04 07:38:55;;;;;;;11.18;2.88;;;11.20;99.90;;;;;;5034746;28;20515;-48
2022/05/04 07:44:05;;;;;;;9.90;2.90;;;11.50;99.90;;;;;;5028426;28;20166;-52
2022/05/04 07:46:31;;;;;;;7.53;3.03;;;11.50;99.90;;;;;;5033146;28;20062;-48
2022/05/04 07:48:57;;;;;;;8.27;2.60;;;11.40;99.90;;;;;;5034386;28;20489;-52
2022/05/04 07:51:23;;;;;;;12.18;2.88;;;11.50;99.90;;;;;;5033289;28;20139;-45
2022/05/04 07:53:48;;;;;;;8.43;2.65;;;11.70;99.90;;;;;;5029465;28;20057;-49
2022/05/04 07:56:14;;;;;;;9.13;2.80;;;11.70;99.90;;;;;;5031795;28;20199;-49
2022/05/04 07:58:40;;;;;;;8.98;2.83;;;11.70;99.90;;;;;;5036740;28;20178;-47
2022/05/04 08:06:35;;;;;;;8.95;2.95;;;11.90;99.90;;;;;;5031761;28;20403;-49
2022/05/04 08:09:01;;;;;;;11.43;3.00;;;11.80;99.90;;;;;;5036189;28;20045;-49
2022/05/04 08:11:27;;;;;;;8.88;2.80;;;11.90;99.90;;;;;;5037566;28;20618;-51
2022/05/04 08:13:53;;;;;;;10.68;3.10;;;12.00;99.90;;;;;;5036641;28;20041;-49
2022/05/04 08:16:19;;;;;;;7.88;2.85;;;12.10;99.90;;;;;;5035582;28;20052;-49
2022/05/04 08:18:45;;;;;;;10.23;2.80;;;12.10;99.90;;;;;;5037923;28;20102;-51
2022/05/04 08:21:10;;;;;;;11.35;3.42;;;12.10;99.90;;;;;;5029226;28;20094;-50
2022/05/04 08:23:39;;;;;;;8.48;2.72;;;12.20;99.90;;;;;;5038264;28;20122;-52
2022/05/04 08:26:05;;;;;;;8.75;2.75;;;12.30;99.50;;;;;;5044861;28;20067;-49
2022/05/04 08:28:31;;;;;;;10.07;2.80;;;12.30;99.40;;;;;;5064970;28;20052;-49
2022/05/04 08:30:57;;;;;;;7.43;2.35;;;12.40;99.30;;;;;;5067539;28;20040;-49
2022/05/04 08:33:23;;;;;;;9.05;3.10;;;12.30;98.50;;;;;;5047274;28;20103;-52
2022/05/04 08:35:49;;;;;;;11.63;3.60;;;12.40;99.20;;;;;;5061409;28;20175;-59
2022/05/04 08:38:15;;;;;;;7.82;2.67;;;12.30;98.10;;;;;;5046925;28;20059;-51
2022/05/04 08:40:41;;;;;;;10.55;3.25;;;12.30;98.80;;;;;;5062031;28;20052;-48
2022/05/04 08:43:07;;;;;;;7.68;3.00;;;12.50;98.80;;;;;;5056663;28;20637;-52
2022/05/04 08:45:38;;;;;;;6.90;2.40;;;12.50;98.90;;;;;;5055980;28;20053;-49
2022/05/04 08:48:07;;;;;;;8.85;2.67;;;12.80;98.10;;;;;;5055264;28;20049;-46
2022/05/04 08:50:39;;;;;;;7.68;2.85;;;13.00;98.30;;;;;;5060358;28;20055;-47
2022/05/04 08:53:05;;;;;;;5.03;2.17;;;13.30;98.10;;;;;;5051734;28;20114;-46
2022/05/04 08:55:31;;;;;;;7.55;2.47;;;13.40;97.00;;;;;;5034042;28;20060;-48
2022/05/04 08:57:57;;;;;;;5.63;2.30;;;13.20;96.60;;;;;;5055243;28;20045;-53
2022/05/04 09:00:24;;;;;;;8.88;2.80;;;13.40;97.50;;;;;;5037539;28;20040;-50
2022/05/04 09:02:50;;;;;;;8.23;2.90;;;13.60;96.90;;;;;;5043967;28;20465;-52
2022/05/04 09:05:17;;;;;;;11.73;2.72;;;13.60;96.50;;;;;;5062236;28;20052;-51
2022/05/04 09:07:44;;;;;;;6.25;2.90;;;13.80;96.80;;;;;;5059704;28;20569;-49
2022/05/04 09:10:18;;;;;;;7.82;3.17;;;14.10;96.50;;;;;;5059313;28;20421;-52
2022/05/04 09:12:45;;;;;;;13.65;3.38;;;14.20;96.80;;;;;;5053817;28;20545;-51
2022/05/04 09:15:22;;;;;;;8.52;3.25;;;14.30;96.20;;;;;;5031682;28;20061;-52
2022/05/04 09:17:56;;;;;;;8.98;3.03;;;14.00;95.50;;;;;;5059195;28;20131;-51
2022/05/04 09:23:29;;;;;;;6.13;2.58;;;13.80;96.10;;;;;;5056210;28;20086;-53
2022/05/04 09:26:05;;;;;;;8.80;2.88;;;13.80;95.20;;;;;;5042113;28;20045;-48
2022/05/04 09:28:32;;;;;;;12.18;3.33;;;13.80;95.70;;;;;;5036028;28;20411;-46
2022/05/04 09:31:18;;;;;;;10.57;3.00;;;14.00;95.60;;;;;;5050418;28;20304;-49
2022/05/04 09:33:52;;;;;;;10.85;2.63;;;14.00;95.70;;;;;;5043477;28;20060;-53
2022/05/04 09:36:33;;;;;;;7.63;3.10;;;14.10;94.90;;;;;;5027197;28;20436;-50
2022/05/04 09:45:14;;;;;;;6.68;2.95;;;14.40;94.40;;;;;;5028666;28;20057;-54
2022/05/04 09:47:42;;;;;;;8.13;2.72;;;14.40;95.30;;;;;;5035788;28;20079;-51
2022/05/04 09:50:11;;;;;;;7.55;2.63;;;14.50;94.60;;;;;;5044416;28;20057;-53
2022/05/04 09:52:46;;;;;;;7.70;3.17;;;14.60;95.40;;;;;;5043229;28;20084;-49
2022/05/04 09:55:16;;;;;;;7.68;2.70;;;14.60;94.70;;;;;;5043999;28;20458;-51
2022/05/04 09:57:47;;;;;;;11.20;4.50;;;14.60;95.30;;;;;;5041154;28;20045;-51
2022/05/04 10:00:15;;;;;;;6.25;3.53;;;14.40;94.90;;;;;;5043698;28;20055;-51
2022/05/04 10:02:44;;;;;;;8.43;3.63;;;14.40;96.20;;;;;;5041737;28;20064;-49
2022/05/04 10:05:16;;;;;;;16.35;5.25;;;14.50;95.20;;;;;;5039704;28;20072;-53
2022/05/04 10:07:47;;;;;;;10.48;3.88;;;14.40;94.70;;;;;;5041041;28;20411;-52
2022/05/04 10:10:17;;;;;;;7.78;3.17;;;14.50;94.70;;;;;;5047638;28;20094;-49
2022/05/04 10:12:44;;;;;;;9.15;4.25;;;14.20;94.80;;;;;;5043835;28;20053;-50
2022/05/04 10:15:14;;;;;;;10.43;4.10;;;13.90;94.30;;;;;;5038592;28;20045;-53
2022/05/04 10:18:04;;;;;;;8.02;3.70;;;13.50;94.00;;;;;;5026750;28;20312;-50
2022/05/04 10:20:38;;;;;;;8.73;3.70;;;13.40;94.70;;;;;;5043300;28;20041;-49
2022/05/04 10:23:22;;;;;;;7.95;3.15;;;13.70;95.30;;;;;;5034967;28;20049;-49
2022/05/04 10:25:52;;;;;;;10.30;3.35;;;13.90;94.70;;;;;;5031839;28;20187;-50
2022/05/04 10:28:18;;;;;;;8.77;3.42;;;14.00;95.30;;;;;;5042165;28;20064;-48
2022/05/04 10:30:53;;;;;;;6.68;3.05;;;14.30;94.90;;;;;;5034131;28;20138;-52
2022/05/04 10:33:23;;;;;;;9.38;3.22;;;14.30;95.30;;;;;;5027310;28;20057;-52
2022/05/04 10:35:50;;;;;;;8.57;3.72;;;14.20;95.10;;;;;;5032051;28;20088;-48
2022/05/04 10:38:28;;;;;;;7.63;3.10;;;14.10;95.90;;;;;;5040775;28;20545;-50
2022/05/04 10:40:54;;;;;;;10.88;4.07;;;14.30;97.00;;;;;;5037641;28;20559;-51
2022/05/04 10:43:54;;;;;;;8.13;3.63;;;14.50;96.00;;;;;;5038685;28;20079;-51
2022/05/04 10:46:21;;;;;;;8.10;3.70;;;14.70;95.30;;;;;;4987197;28;20149;-51
2022/05/04 10:49:03;;;;;;;7.70;3.53;;;14.80;95.20;;;;;;4967219;28;20145;-51
2022/05/04 10:51:37;;;;;;;10.73;3.90;;;14.80;94.20;;;;;;4991856;28;20077;-54
2022/05/04 10:54:09;;;;;;;9.15;3.65;;;14.70;94.60;;;;;;4997927;28;20058;-53
2022/05/04 10:56:47;;;;;;;9.52;3.67;;;14.70;94.50;;;;;;4998197;28;20441;-47
2022/05/04 10:59:34;;;;;;;8.95;4.18;;;14.60;96.00;;;;;;4981653;28;20050;-52
2022/05/04 11:02:05;;;;;;;10.30;3.75;;;14.40;94.10;;;;;;5000038;28;20053;-49
2022/05/04 11:04:34;;;;;;;8.43;4.07;;;14.40;95.40;;;;;;4996614;28;20041;-48
2022/05/04 11:07:06;;;;;;;9.52;3.78;;;14.40;94.80;;;;;;4994030;28;20049;-48
2022/05/04 11:09:42;;;;;;;9.20;3.70;;;14.50;95.30;;;;;;4994307;28;20065;-49
2022/05/04 11:12:10;;;;;;;10.80;4.20;;;14.60;95.10;;;;;;4988681;28;20527;-52
2022/05/04 11:14:36;;;;;;;8.35;3.97;;;14.40;95.30;;;;;;4991535;28;20049;-52
2022/05/04 11:17:13;;;;;;;8.80;3.97;;;14.50;95.00;;;;;;4996848;28;20046;-52
2022/05/04 11:19:44;;;;;;;10.02;3.88;;;14.40;94.80;;;;;;4996598;28;20231;-52
2022/05/04 11:22:10;;;;;;;9.75;4.55;;;14.30;95.00;;;;;;5006914;28;20423;-52
2022/05/04 11:24:37;;;;;;;12.45;5.07;;;14.40;95.20;;;;;;5047595;28;20402;-51
2022/05/04 11:27:04;;;;;;;6.90;3.83;;;14.40;93.80;;;;;;5062323;28;20061;-48
2022/05/04 11:29:30;;;;;;;9.18;4.80;;;14.30;94.70;;;;;;5054874;28;20048;-47
2022/05/04 11:32:04;;;;;;;9.82;3.97;;;14.40;94.40;;;;;;5058176;28;20411;-49
2022/05/04 11:34:38;;;;;;;12.23;4.75;;;14.50;94.50;;;;;;5052720;28;20056;-47
2022/05/04 11:37:09;;;;;;;10.10;4.70;;;14.60;94.70;;;;;;5053918;28;20457;-47
2022/05/04 11:39:37;;;;;;;8.23;4.65;;;14.50;94.10;;;;;;5026773;28;20498;-52
2022/05/04 11:42:04;;;;;;;11.98;4.50;;;14.40;93.40;;;;;;5051837;28;20056;-53
2022/05/04 11:44:31;;;;;;;12.05;4.70;;;14.40;94.20;;;;;;5052852;28;20041;-53
2022/05/04 11:46:59;;;;;;;8.13;4.07;;;14.50;94.20;;;;;;5054545;28;20574;-55
2022/05/04 11:49:27;;;;;;;7.85;4.38;;;14.60;94.20;;;;;;5047903;28;20045;-51
2022/05/04 11:51:54;;;;;;;8.90;4.85;;;14.60;94.30;;;;;;5058529;28;20139;-52
2022/05/04 11:54:20;;;;;;;9.65;5.15;;;14.60;94.10;;;;;;5059496;28;20063;-51
2022/05/04 11:56:46;;;;;;;12.93;4.47;;;14.60;95.80;;;;;;5042086;28;20062;-52
2022/05/04 11:59:12;;;;;;;11.27;4.07;;;14.70;95.50;;;;;;5054964;28;20048;-51
2022/05/04 12:01:38;;;;;;;6.32;4.97;;;14.80;95.30;;;;;;5043177;28;20135;-52
2022/05/04 12:04:10;;;;;;;9.15;4.93;;;14.80;94.00;;;;;;5062781;28;20501;-48
2022/05/04 12:06:37;;;;;;;12.13;5.18;;;14.60;93.40;;;;;;5056882;28;20056;-50
2022/05/04 12:09:03;;;;;;;10.60;4.95;;;14.40;93.80;;;;;;5034599;28;20101;-53
2022/05/04 12:11:30;;;;;;;10.35;5.15;;;14.40;93.70;;;;;;5060008;28;20494;-52
2022/05/04 12:13:56;;;;;;;10.35;4.57;;;14.50;94.10;;;;;;5060188;28;20480;-49
2022/05/04 12:16:23;;;;;;;8.60;5.03;;;14.50;94.20;;;;;;5063765;28;20033;-53
2022/05/04 12:18:49;;;;;;;10.40;4.72;;;14.40;94.30;;;;;;5065083;28;20055;-52
2022/05/04 12:21:17;;;;;;;9.43;5.00;;;14.70;95.20;;;;;;5065548;28;20099;-51
2022/05/04 12:23:50;;;;;;;9.27;4.95;;;14.90;94.30;;;;;;5063993;28;20155;-51
2022/05/04 12:26:17;;;;;;;9.35;4.82;;;14.70;93.60;;;;;;5055907;28;20124;-54
2022/05/04 12:33:08;;;;;;;10.07;4.40;;;14.70;94.00;;;;;;5039064;28;20455;-55
2022/05/04 12:34:16;;;;;;;7.03;4.40;;;14.50;94.50;;;;;;5062884;28;20079;-53
2022/05/04 12:36:46;;;;;;;12.35;4.78;;;14.60;95.10;;;;;;5055610;28;20049;-52
2022/05/04 12:39:13;;;;;;;13.07;5.10;;;14.60;95.90;;;;;;5038959;28;20036;-50
2022/05/04 12:41:39;;;;;;;11.07;4.70;;;14.80;95.90;;;;;;5056583;28;20048;-51
2022/05/04 12:44:06;;;;;;;6.65;4.22;;;14.80;95.30;;;;;;5048355;28;20048;-53
2022/05/04 12:46:32;;;;;;;82.65;10.95;;;15.00;95.50;;;;;;5063053;28;20119;-47
2022/05/04 12:48:58;;;;;;;7.60;4.43;;;15.00;95.50;;;;;;5043593;28;20109;-51
2022/05/04 12:51:25;;;;;;;10.60;4.82;;;15.20;94.90;;;;;;5050721;28;20028;-52
2022/05/04 12:53:51;;;;;;;11.05;5.13;;;15.30;94.90;;;;;;5062242;28;20048;-51
2022/05/04 12:59:03;;;;;;;9.00;4.75;;;15.20;94.10;;;;;;5057444;28;20400;-49
2022/05/04 13:01:31;;;;;;;12.30;4.78;;;15.10;94.40;;;;;;5060095;28;20601;-54
2022/05/04 13:03:57;;;;;;;9.02;5.03;;;15.10;95.10;;;;;;5058947;28;20051;-50
2022/05/04 13:06:24;;;;;;;9.30;5.28;;;15.20;95.40;;;;;;5057517;28;20083;-51
2022/05/04 13:08:52;;;;;;;14.73;4.88;;;15.20;95.10;;;;;;5040439;28;20124;-48
2022/05/04 13:11:20;;;;;;;9.50;4.93;;;15.10;94.00;;;;;;5042713;28;20067;-50
2022/05/04 13:13:46;;;;;;;7.53;4.85;;;15.00;94.00;;;;;;5057540;28;20084;-50
2022/05/04 13:16:12;;;;;;;11.23;4.95;;;14.90;94.50;;;;;;5059871;28;20044;-48
2022/05/04 13:18:39;;;;;;;9.82;4.70;;;14.80;93.80;;;;;;5061944;28;20127;-51
2022/05/04 13:21:06;;;;;;;9.93;4.90;;;14.80;94.40;;;;;;5044784;28;20063;-49
2022/05/04 13:23:32;;;;;;;9.45;4.80;;;15.00;95.00;;;;;;5060608;28;20052;-48
2022/05/04 13:25:58;;;;;;;11.98;5.57;;;15.10;94.60;;;;;;5040143;28;20067;-51